createdAt,value
2019-06-26T00:01:14.724Z,51.37
2019-06-26T00:03:17.054Z,51.38
2019-06-26T00:05:19.676Z,51.35
2019-06-26T00:07:22.125Z,51.36
2019-06-26T00:09:24.744Z,51.36
2019-06-26T00:11:27.093Z,51.38
2019-06-26T00:13:29.451Z,51.34
2019-06-26T00:15:31.792Z,51.38
2019-06-26T00:17:34.135Z,51.38
2019-06-26T00:19:36.457Z,51.36
2019-06-26T00:21:38.785Z,51.39
2019-06-26T00:23:41.431Z,51.33
2019-06-26T00:25:43.788Z,51.34
2019-06-26T00:27:46.482Z,51.32
2019-06-26T00:29:49.087Z,51.31
2019-06-26T00:31:51.453Z,51.34
2019-06-26T00:33:53.794Z,51.29
2019-06-26T00:35:56.144Z,51.30
2019-06-26T00:37:58.457Z,51.35
2019-06-26T00:40:01.097Z,51.36
2019-06-26T00:42:03.460Z,51.37
2019-06-26T00:44:05.900Z,51.31
2019-06-26T00:46:08.399Z,51.32
2019-06-26T00:48:10.709Z,51.28
2019-06-26T00:50:13.033Z,51.29
2019-06-26T00:52:15.366Z,51.31
2019-06-26T00:54:17.707Z,51.27
2019-06-26T00:56:20.155Z,51.30
2019-06-26T00:58:22.490Z,51.31
2019-06-26T01:00:24.811Z,51.30
2019-06-26T01:02:27.316Z,51.29
2019-06-26T01:04:29.630Z,51.23
2019-06-26T01:06:32.055Z,51.30
2019-06-26T01:08:34.608Z,51.30
2019-06-26T01:10:36.928Z,51.27
2019-06-26T01:12:39.261Z,51.27
2019-06-26T01:14:41.579Z,51.24
2019-06-26T01:16:43.920Z,51.21
2019-06-26T01:18:46.623Z,51.19
2019-06-26T01:20:48.940Z,51.22
2019-06-26T01:22:51.289Z,51.25
2019-06-26T01:24:53.611Z,51.22
2019-06-26T01:26:55.958Z,51.23
2019-06-26T01:28:58.279Z,51.23
2019-06-26T01:31:00.608Z,51.25
2019-06-26T01:33:02.935Z,51.23
2019-06-26T01:35:05.579Z,51.20
2019-06-26T01:37:07.903Z,51.22
2019-06-26T01:39:10.304Z,51.21
2019-06-26T01:41:12.604Z,51.22
2019-06-26T01:43:14.954Z,51.18
2019-06-26T01:45:17.280Z,51.16
2019-06-26T01:47:19.628Z,51.18
2019-06-26T01:49:22.249Z,51.21
2019-06-26T01:51:24.562Z,51.20
2019-06-26T01:53:26.886Z,51.18
2019-06-26T01:55:29.536Z,51.15
2019-06-26T01:57:31.881Z,51.18
2019-06-26T01:59:34.199Z,51.15
2019-06-26T02:01:36.532Z,51.16
2019-06-26T02:03:38.932Z,51.18
2019-06-26T02:05:41.260Z,51.19
2019-06-26T02:07:43.616Z,51.15
2019-06-26T02:09:45.936Z,51.14
2019-06-26T02:11:48.259Z,51.15
2019-06-26T02:13:50.583Z,51.16
2019-06-26T02:15:52.932Z,51.15
2019-06-26T02:17:55.551Z,51.13
2019-06-26T02:19:57.880Z,51.15
2019-06-26T02:22:00.235Z,51.17
2019-06-26T02:24:02.590Z,51.12
2019-06-26T02:26:04.889Z,51.13
2019-06-26T02:28:07.242Z,51.14
2019-06-26T02:30:09.854Z,51.14
2019-06-26T02:32:12.167Z,51.17
2019-06-26T02:34:14.492Z,51.17
2019-06-26T02:36:17.099Z,51.15
2019-06-26T02:38:19.591Z,51.12
2019-06-26T02:40:22.218Z,51.13
2019-06-26T02:42:24.724Z,51.12
2019-06-26T02:44:27.353Z,51.14
2019-06-26T02:46:30.037Z,51.14
2019-06-26T02:48:32.408Z,51.15
2019-06-26T02:50:35.098Z,51.14
2019-06-26T02:52:37.761Z,51.11
2019-06-26T02:54:40.086Z,51.12
2019-06-26T02:56:42.406Z,51.12
2019-06-26T02:58:45.068Z,51.11
2019-06-26T03:00:47.743Z,51.12
2019-06-26T03:02:50.227Z,51.13
2019-06-26T03:04:52.576Z,51.14
2019-06-26T03:06:54.881Z,51.11
2019-06-26T03:08:57.234Z,51.12
2019-06-26T03:10:59.569Z,51.14
2019-06-26T03:13:01.915Z,51.12
2019-06-26T03:15:08.680Z,51.11
2019-06-26T03:17:08.179Z,51.11
2019-06-26T03:19:10.906Z,51.13
2019-06-26T03:21:13.236Z,51.11
2019-06-26T03:23:15.957Z,51.15
2019-06-26T03:25:18.275Z,51.08
2019-06-26T03:27:20.739Z,51.12
2019-06-26T03:29:23.067Z,51.13
2019-06-26T03:31:25.535Z,51.13
2019-06-26T03:33:27.859Z,51.14
2019-06-26T03:35:30.205Z,51.13
2019-06-26T03:37:32.505Z,51.14
2019-06-26T03:39:34.891Z,51.09
2019-06-26T03:41:37.937Z,51.12
2019-06-26T03:43:40.671Z,51.16
2019-06-26T03:45:43.288Z,51.12
2019-06-26T03:47:45.608Z,51.14
2019-06-26T03:49:47.930Z,51.13
2019-06-26T03:51:50.664Z,51.14
2019-06-26T03:53:53.025Z,51.13
2019-06-26T03:55:55.350Z,51.13
2019-06-26T03:57:57.655Z,51.17
2019-06-26T04:00:00.011Z,51.16
2019-06-26T04:02:02.332Z,51.13
2019-06-26T04:04:04.683Z,51.16
2019-06-26T04:06:07.008Z,51.18
2019-06-26T04:08:09.525Z,51.17
2019-06-26T04:10:11.808Z,51.18
2019-06-26T04:12:14.995Z,51.15
2019-06-26T04:14:17.494Z,51.15
2019-06-26T04:16:19.823Z,51.16
2019-06-26T04:18:22.292Z,51.20
2019-06-26T04:20:24.648Z,51.21
2019-06-26T04:22:26.973Z,51.20
2019-06-26T04:24:29.466Z,51.21
2019-06-26T04:26:31.836Z,51.17
2019-06-26T04:28:34.336Z,51.20
2019-06-26T04:30:36.818Z,51.33
2019-06-26T04:32:39.171Z,54.30
2019-06-26T04:34:41.523Z,55.76
2019-06-26T04:36:43.858Z,57.00
2019-06-26T04:38:47.119Z,57.40
2019-06-26T04:40:49.470Z,57.91
2019-06-26T04:42:51.786Z,58.21
2019-06-26T04:44:54.134Z,58.61
2019-06-26T04:46:56.454Z,58.85
2019-06-26T04:48:59.059Z,59.06
2019-06-26T04:51:02.335Z,59.07
2019-06-26T04:53:04.662Z,59.40
2019-06-26T04:55:07.024Z,59.57
2019-06-26T04:57:09.742Z,59.71
2019-06-26T04:59:12.427Z,59.85
2019-06-26T05:01:14.773Z,60.09
2019-06-26T05:03:17.096Z,59.96
2019-06-26T05:05:19.455Z,60.24
2019-06-26T05:07:22.065Z,60.35
2019-06-26T05:09:24.390Z,60.48
2019-06-26T05:11:29.203Z,60.56
2019-06-26T05:13:31.614Z,60.57
2019-06-26T05:15:33.964Z,60.53
2019-06-26T05:17:36.450Z,60.47
2019-06-26T05:19:38.826Z,60.32
2019-06-26T05:21:41.179Z,60.40
2019-06-26T05:23:43.502Z,60.44
2019-06-26T05:25:46.197Z,60.30
2019-06-26T05:27:48.511Z,60.34
2019-06-26T05:29:54.317Z,60.31
2019-06-26T05:31:55.558Z,60.42
2019-06-26T05:33:58.247Z,60.45
2019-06-26T05:36:00.906Z,60.75
2019-06-26T05:38:03.589Z,60.83
2019-06-26T05:40:05.907Z,60.72
2019-06-26T05:42:08.287Z,60.47
2019-06-26T05:44:10.632Z,60.43
2019-06-26T05:46:13.133Z,60.44
2019-06-26T05:48:15.463Z,60.12
2019-06-26T05:50:17.844Z,60.24
2019-06-26T05:52:20.607Z,59.86
2019-06-26T05:54:23.052Z,59.75
2019-06-26T05:56:25.811Z,59.61
2019-06-26T05:58:28.242Z,59.40
2019-06-26T06:00:30.977Z,59.04
2019-06-26T06:02:33.443Z,58.91
2019-06-26T06:04:36.003Z,58.88
2019-06-26T06:06:42.152Z,58.77
2019-06-26T06:08:42.498Z,58.63
2019-06-26T06:10:45.608Z,58.99
2019-06-26T06:12:48.406Z,58.52
2019-06-26T06:14:50.768Z,58.44
2019-06-26T06:16:53.125Z,58.36
2019-06-26T06:18:55.431Z,58.32
2019-06-26T06:20:59.802Z,58.47
2019-06-26T06:23:02.681Z,58.41
2019-06-26T06:25:05.224Z,58.32
2019-06-26T06:27:07.546Z,58.24
2019-06-26T06:29:09.989Z,57.98
2019-06-26T06:31:12.398Z,58.04
2019-06-26T06:33:15.173Z,58.00
2019-06-26T06:35:17.919Z,57.90
2019-06-26T06:37:20.580Z,57.77
2019-06-26T06:39:22.914Z,57.80
2019-06-26T06:41:25.555Z,57.71
2019-06-26T06:43:28.034Z,57.69
2019-06-26T06:45:30.365Z,57.66
2019-06-26T06:47:32.710Z,57.69
2019-06-26T06:49:35.036Z,57.48
2019-06-26T06:51:37.395Z,57.34
2019-06-26T06:53:39.711Z,57.28
2019-06-26T06:55:42.054Z,57.37
2019-06-26T06:57:44.428Z,57.39
2019-06-26T06:59:47.192Z,57.34
2019-06-26T07:01:49.818Z,57.62
2019-06-26T07:03:52.823Z,57.32
2019-06-26T07:05:55.529Z,57.26
2019-06-26T07:07:59.227Z,57.41
2019-06-26T07:10:01.871Z,57.36
2019-06-26T07:12:04.313Z,57.27
2019-06-26T07:14:07.053Z,57.42
2019-06-26T07:16:09.371Z,57.50
2019-06-26T07:18:11.727Z,57.34
2019-06-26T07:20:14.341Z,58.19
2019-06-26T07:22:16.793Z,57.33
2019-06-26T07:24:19.213Z,57.59
2019-06-26T07:26:21.656Z,57.73
2019-06-26T07:28:24.327Z,57.38
2019-06-26T07:30:26.923Z,57.41
2019-06-26T07:32:29.486Z,57.28
2019-06-26T07:34:31.814Z,57.16
2019-06-26T07:36:34.269Z,56.95
2019-06-26T07:38:36.905Z,56.96
2019-06-26T07:40:39.450Z,56.79
2019-06-26T07:42:42.543Z,56.80
2019-06-26T07:44:44.871Z,56.45
2019-06-26T07:46:47.582Z,56.42
2019-06-26T07:48:50.363Z,56.20
2019-06-26T07:50:53.252Z,56.35
2019-06-26T07:52:55.747Z,56.37
2019-06-26T07:54:58.160Z,56.38
2019-06-26T07:57:00.553Z,56.12
2019-06-26T07:59:03.024Z,56.05
2019-06-26T08:01:05.920Z,55.77
2019-06-26T08:03:08.354Z,55.69
2019-06-26T08:05:11.062Z,55.54
2019-06-26T08:07:13.563Z,55.42
2019-06-26T08:09:16.246Z,55.16
2019-06-26T08:11:18.579Z,55.02
2019-06-26T08:13:21.053Z,54.87
2019-06-26T08:15:23.356Z,54.81
2019-06-26T08:17:25.872Z,54.85
2019-06-26T08:19:28.705Z,54.72
2019-06-26T08:21:31.194Z,54.54
2019-06-26T08:23:33.861Z,54.38
2019-06-26T08:25:36.184Z,54.39
2019-06-26T08:27:38.508Z,54.24
2019-06-26T08:29:41.259Z,54.19
2019-06-26T08:31:43.648Z,54.10
2019-06-26T08:33:45.999Z,54.06
2019-06-26T08:35:48.647Z,54.00
2019-06-26T08:37:51.154Z,53.98
2019-06-26T08:39:53.923Z,53.94
2019-06-26T08:41:56.830Z,53.88
2019-06-26T08:43:59.174Z,53.80
2019-06-26T08:46:01.848Z,53.75
2019-06-26T08:48:17.336Z,53.79
2019-06-26T08:50:08.487Z,53.73
2019-06-26T08:52:10.814Z,53.84
2019-06-26T08:54:13.497Z,53.91
2019-06-26T08:56:15.818Z,53.83
2019-06-26T08:58:18.537Z,53.66
2019-06-26T09:00:20.873Z,53.84
2019-06-26T09:02:24.128Z,53.80
2019-06-26T09:04:26.463Z,53.68
2019-06-26T09:06:28.778Z,53.59
2019-06-26T09:08:31.426Z,53.46
2019-06-26T09:10:33.944Z,53.68
2019-06-26T09:12:36.261Z,53.63
2019-06-26T09:14:38.779Z,53.44
2019-06-26T09:16:41.287Z,53.48
2019-06-26T09:18:43.771Z,53.45
2019-06-26T09:20:46.242Z,53.38
2019-06-26T09:22:48.755Z,53.56
2019-06-26T09:24:51.125Z,53.47
2019-06-26T09:26:54.174Z,53.32
2019-06-26T09:28:56.853Z,53.23
2019-06-26T09:30:59.536Z,53.18
2019-06-26T09:33:01.916Z,53.17
2019-06-26T09:35:04.402Z,53.11
2019-06-26T09:37:06.768Z,53.06
2019-06-26T09:39:09.126Z,52.96
2019-06-26T09:41:11.455Z,52.89
2019-06-26T09:43:13.839Z,52.85
2019-06-26T09:45:16.223Z,52.78
2019-06-26T09:47:18.890Z,52.80
2019-06-26T09:49:21.448Z,52.78
2019-06-26T09:51:24.372Z,52.75
2019-06-26T09:53:26.869Z,52.65
2019-06-26T09:55:29.875Z,52.71
2019-06-26T09:57:32.399Z,52.32
2019-06-26T09:59:35.024Z,52.55
2019-06-26T10:01:37.348Z,52.32
2019-06-26T10:03:40.176Z,52.48
2019-06-26T10:05:42.877Z,52.02
2019-06-26T10:07:45.295Z,52.14
2019-06-26T10:09:47.887Z,52.12
2019-06-26T10:11:50.407Z,52.00
2019-06-26T10:13:53.133Z,51.80
2019-06-26T10:15:55.481Z,51.92
2019-06-26T10:17:58.361Z,51.28
2019-06-26T10:20:00.743Z,50.90
2019-06-26T10:22:03.427Z,50.89
2019-06-26T10:24:06.238Z,50.87
2019-06-26T10:26:09.848Z,50.83
2019-06-26T10:28:12.377Z,50.91
2019-06-26T10:30:14.909Z,50.99
2019-06-26T10:32:17.263Z,51.09
2019-06-26T10:34:19.613Z,51.21
2019-06-26T10:36:24.403Z,50.90
2019-06-26T10:38:25.918Z,50.94
2019-06-26T10:40:28.329Z,50.86
2019-06-26T10:42:31.051Z,50.86
2019-06-26T10:44:33.380Z,50.50
2019-06-26T10:46:35.729Z,50.85
2019-06-26T10:48:38.063Z,50.58
2019-06-26T10:50:49.469Z,50.48
2019-06-26T10:52:45.056Z,50.62
2019-06-26T10:54:47.604Z,50.73
2019-06-26T10:56:49.959Z,50.79
2019-06-26T10:58:52.394Z,50.75
2019-06-26T11:00:55.022Z,50.77
2019-06-26T11:02:57.561Z,50.76
2019-06-26T11:05:00.147Z,50.88
2019-06-26T11:07:02.739Z,50.88
2019-06-26T11:09:05.232Z,51.34
2019-06-26T11:11:07.858Z,51.51
2019-06-26T11:13:10.318Z,51.24
2019-06-26T11:15:12.693Z,51.53
2019-06-26T11:17:15.251Z,51.29
2019-06-26T11:19:17.721Z,51.35
2019-06-26T11:21:20.153Z,51.40
2019-06-26T11:23:23.612Z,51.57
2019-06-26T11:25:27.093Z,51.84
2019-06-26T11:27:29.861Z,52.28
2019-06-26T11:29:32.240Z,51.36
2019-06-26T11:31:34.688Z,51.16
2019-06-26T11:33:37.449Z,51.03
2019-06-26T11:35:39.921Z,50.91
2019-06-26T11:37:42.573Z,50.92
2019-06-26T11:39:44.913Z,51.12
2019-06-26T11:41:47.919Z,51.21
2019-06-26T11:43:51.339Z,51.65
2019-06-26T11:45:53.697Z,51.45
2019-06-26T11:47:56.039Z,51.51
2019-06-26T11:50:00.310Z,51.48
2019-06-26T11:52:02.630Z,51.52
2019-06-26T11:54:05.410Z,51.64
2019-06-26T11:56:07.990Z,51.64
2019-06-26T11:58:10.552Z,51.68
2019-06-26T12:00:12.873Z,51.79
2019-06-26T12:02:15.261Z,51.90
2019-06-26T12:04:17.763Z,51.93
2019-06-26T12:06:20.141Z,51.99
2019-06-26T12:08:22.900Z,52.17
2019-06-26T12:10:25.604Z,52.24
2019-06-26T12:12:28.193Z,52.37
2019-06-26T12:14:30.802Z,52.38
2019-06-26T12:16:33.140Z,52.46
2019-06-26T12:18:35.931Z,52.51
2019-06-26T12:20:38.550Z,52.58
2019-06-26T12:22:40.956Z,52.72
2019-06-26T12:24:43.320Z,52.82
2019-06-26T12:26:45.820Z,52.86
2019-06-26T12:28:48.168Z,52.94
2019-06-26T12:30:50.636Z,52.87
2019-06-26T12:33:03.031Z,52.82
2019-06-26T12:34:56.937Z,52.85
2019-06-26T12:36:59.408Z,52.93
2019-06-26T12:39:02.102Z,52.85
2019-06-26T12:41:04.432Z,52.77
2019-06-26T12:43:06.761Z,52.74
2019-06-26T12:45:09.143Z,52.76
2019-06-26T12:47:11.500Z,52.80
2019-06-26T12:49:13.916Z,52.83
2019-06-26T12:51:16.278Z,52.74
2019-06-26T12:53:18.648Z,52.61
2019-06-26T12:55:20.991Z,52.59
2019-06-26T12:57:23.870Z,52.58
2019-06-26T12:59:26.416Z,52.75
2019-06-26T13:01:28.891Z,52.83
2019-06-26T13:03:31.613Z,52.86
2019-06-26T13:05:33.943Z,52.87
2019-06-26T13:07:36.410Z,52.81
2019-06-26T13:09:39.084Z,52.76
2019-06-26T13:11:41.569Z,52.72
2019-06-26T13:13:43.928Z,52.76
2019-06-26T13:15:50.811Z,52.94
2019-06-26T13:17:52.887Z,52.58
2019-06-26T13:19:56.475Z,52.52
2019-06-26T13:21:59.260Z,52.51
2019-06-26T13:24:01.675Z,52.48
2019-06-26T13:26:04.171Z,52.43
2019-06-26T13:28:06.845Z,52.41
2019-06-26T13:30:09.515Z,52.43
2019-06-26T13:32:12.385Z,52.50
2019-06-26T13:34:14.994Z,52.56
2019-06-26T13:36:17.809Z,52.42
2019-06-26T13:38:20.572Z,52.38
2019-06-26T13:40:23.351Z,52.50
2019-06-26T13:42:25.654Z,52.54
2019-06-26T13:44:28.019Z,52.62
2019-06-26T13:46:30.364Z,52.72
2019-06-26T13:48:32.742Z,52.70
2019-06-26T13:50:35.103Z,52.62
2019-06-26T13:52:37.751Z,52.63
2019-06-26T13:54:40.260Z,52.57
2019-06-26T13:56:43.511Z,52.59
2019-06-26T13:58:45.906Z,52.64
2019-06-26T14:00:48.372Z,52.62
2019-06-26T14:02:50.747Z,52.58
2019-06-26T14:04:53.423Z,52.60
2019-06-26T14:06:56.163Z,52.54
2019-06-26T14:08:59.740Z,52.29
2019-06-26T14:11:02.274Z,52.40
2019-06-26T14:13:05.038Z,52.47
2019-06-26T14:15:07.543Z,52.50
2019-06-26T14:17:09.872Z,52.46
2019-06-26T14:19:12.842Z,52.35
2019-06-26T14:21:24.977Z,52.39
2019-06-26T14:23:19.139Z,52.39
2019-06-26T14:25:21.500Z,52.61
2019-06-26T14:27:23.868Z,52.71
2019-06-26T14:29:26.522Z,52.69
2019-06-26T14:31:29.024Z,52.70
2019-06-26T14:33:31.499Z,52.71
2019-06-26T14:35:33.954Z,52.80
2019-06-26T14:37:36.283Z,52.79
2019-06-26T14:39:40.993Z,52.79
2019-06-26T14:41:42.902Z,52.74
2019-06-26T14:43:45.231Z,52.67
2019-06-26T14:45:47.934Z,52.68
2019-06-26T14:47:50.650Z,52.74
2019-06-26T14:49:53.490Z,52.60
2019-06-26T14:51:55.839Z,52.40
2019-06-26T14:53:58.264Z,52.24
2019-06-26T14:56:00.612Z,52.08
2019-06-26T14:58:03.191Z,52.04
2019-06-26T15:00:05.823Z,51.98
2019-06-26T15:02:08.327Z,51.84
2019-06-26T15:04:11.143Z,51.79
2019-06-26T15:06:16.925Z,51.76
2019-06-26T15:08:17.724Z,51.67
2019-06-26T15:10:20.088Z,51.64
2019-06-26T15:12:22.706Z,51.59
2019-06-26T15:14:25.568Z,51.54
2019-06-26T15:16:30.548Z,51.44
2019-06-26T15:18:32.628Z,51.32
2019-06-26T15:20:35.295Z,51.28
2019-06-26T15:22:37.799Z,51.25
2019-06-26T15:24:40.130Z,51.18
2019-06-26T15:26:42.957Z,51.20
2019-06-26T15:28:45.682Z,51.12
2019-06-26T15:30:48.454Z,51.01
2019-06-26T15:32:50.939Z,51.02
2019-06-26T15:34:53.321Z,51.11
2019-06-26T15:36:56.459Z,51.07
2019-06-26T15:38:59.348Z,51.01
2019-06-26T15:41:01.743Z,51.03
2019-06-26T15:43:04.208Z,51.17
2019-06-26T15:45:06.606Z,51.22
2019-06-26T15:47:09.988Z,51.12
2019-06-26T15:49:12.362Z,50.96
2019-06-26T15:51:14.718Z,50.87
2019-06-26T15:53:17.322Z,50.74
2019-06-26T15:55:19.768Z,49.94
2019-06-26T15:57:22.100Z,50.02
2019-06-26T15:59:24.712Z,50.25
2019-06-26T16:01:27.497Z,50.29
2019-06-26T16:03:29.816Z,50.74
2019-06-26T16:05:32.153Z,50.92
2019-06-26T16:07:34.853Z,50.81
2019-06-26T16:09:37.579Z,50.75
2019-06-26T16:11:40.252Z,50.80
2019-06-26T16:13:42.946Z,50.86
2019-06-26T16:15:46.180Z,51.27
2019-06-26T16:17:49.226Z,51.57
2019-06-26T16:19:52.126Z,51.99
2019-06-26T16:21:54.880Z,51.50
2019-06-26T16:23:57.209Z,51.57
2019-06-26T16:25:59.749Z,51.53
2019-06-26T16:28:05.722Z,51.53
2019-06-26T16:30:06.590Z,51.55
2019-06-26T16:32:08.988Z,51.63
2019-06-26T16:34:11.776Z,51.60
2019-06-26T16:36:14.107Z,51.68
2019-06-26T16:38:16.574Z,51.75
2019-06-26T16:40:19.303Z,51.82
2019-06-26T16:42:22.167Z,51.83
2019-06-26T16:44:24.522Z,51.83
2019-06-26T16:46:27.003Z,51.89
2019-06-26T16:48:30.818Z,51.91
2019-06-26T16:50:33.371Z,51.90
2019-06-26T16:52:48.584Z,51.95
2019-06-26T16:54:40.463Z,52.03
2019-06-26T16:56:43.243Z,52.10
2019-06-26T16:58:45.941Z,52.13
2019-06-26T17:00:48.271Z,52.16
2019-06-26T17:02:50.787Z,52.20
2019-06-26T17:04:53.096Z,52.22
2019-06-26T17:06:55.725Z,52.26
2019-06-26T17:08:58.449Z,52.25
2019-06-26T17:11:01.390Z,52.46
2019-06-26T17:13:03.747Z,52.45
2019-06-26T17:15:07.045Z,52.46
2019-06-26T17:17:09.509Z,52.57
2019-06-26T17:19:12.071Z,53.11
2019-06-26T17:21:14.916Z,53.36
2019-06-26T17:23:17.247Z,53.14
2019-06-26T17:25:19.960Z,53.11
2019-06-26T17:27:22.383Z,53.23
2019-06-26T17:29:24.985Z,53.13
2019-06-26T17:31:27.534Z,53.29
2019-06-26T17:33:29.928Z,53.41
2019-06-26T17:35:32.590Z,53.31
2019-06-26T17:37:35.115Z,53.34
2019-06-26T17:39:37.777Z,53.38
2019-06-26T17:41:43.204Z,53.26
2019-06-26T17:43:44.729Z,53.21
2019-06-26T17:45:47.472Z,53.16
2019-06-26T17:47:50.126Z,53.06
2019-06-26T17:49:52.855Z,53.12
2019-06-26T17:51:55.148Z,53.07
2019-06-26T17:53:57.612Z,53.20
2019-06-26T17:55:59.962Z,53.17
2019-06-26T17:58:02.612Z,53.09
2019-06-26T18:00:04.944Z,53.07
2019-06-26T18:02:07.286Z,53.13
2019-06-26T18:04:09.764Z,53.14
2019-06-26T18:06:12.220Z,53.30
2019-06-26T18:08:14.955Z,53.28
2019-06-26T18:10:17.616Z,53.31
2019-06-26T18:12:20.233Z,53.23
2019-06-26T18:14:22.587Z,53.29
2019-06-26T18:16:25.340Z,53.28
2019-06-26T18:18:27.754Z,53.37
2019-06-26T18:20:31.572Z,53.46
2019-06-26T18:22:34.658Z,53.52
2019-06-26T18:24:37.248Z,53.52
2019-06-26T18:26:40.183Z,53.52
2019-06-26T18:28:44.539Z,53.56
2019-06-26T18:30:48.321Z,53.53
2019-06-26T18:32:52.347Z,53.48
2019-06-26T18:34:54.659Z,53.46
2019-06-26T18:36:57.601Z,53.48
2019-06-26T18:39:00.592Z,53.48
2019-06-26T18:41:02.954Z,53.46
2019-06-26T18:43:05.669Z,53.44
2019-06-26T18:45:08.056Z,53.42
2019-06-26T18:47:10.437Z,53.42
2019-06-26T18:49:14.202Z,53.40
2019-06-26T18:51:17.543Z,53.39
2019-06-26T18:53:20.021Z,53.37
2019-06-26T18:55:22.699Z,53.37
2019-06-26T18:57:25.136Z,53.35
2019-06-26T18:59:28.224Z,53.33
2019-06-26T19:01:30.897Z,53.34
2019-06-26T19:03:33.436Z,53.31
2019-06-26T19:05:36.624Z,53.30
2019-06-26T19:07:38.938Z,53.29
2019-06-26T19:09:41.987Z,53.27
2019-06-26T19:11:44.834Z,53.28
2019-06-26T19:13:47.300Z,53.31
2019-06-26T19:15:49.992Z,53.31
2019-06-26T19:17:53.090Z,53.34
2019-06-26T19:19:56.028Z,53.31
2019-06-26T19:21:58.480Z,53.25
2019-06-26T19:24:10.117Z,53.00
2019-06-26T19:26:05.689Z,52.59
2019-06-26T19:28:08.655Z,52.53
2019-06-26T19:30:11.138Z,52.53
2019-06-26T19:32:13.458Z,52.48
2019-06-26T19:34:24.063Z,52.34
2019-06-26T19:36:25.041Z,52.16
2019-06-26T19:38:45.387Z,52.38
2019-06-26T19:40:48.098Z,52.50
2019-06-26T19:42:50.976Z,52.53
2019-06-26T19:44:57.458Z,52.56
2019-06-26T19:46:58.569Z,52.50
2019-06-26T19:49:01.897Z,53.08
2019-06-26T19:51:05.207Z,54.17
2019-06-26T19:53:08.119Z,53.74
2019-06-26T19:55:10.508Z,53.52
2019-06-26T19:57:12.946Z,53.10
2019-06-26T19:59:15.351Z,52.86
2019-06-26T20:01:17.915Z,52.86
2019-06-26T20:03:21.769Z,52.49
2019-06-26T20:05:24.155Z,52.51
2019-06-26T20:07:26.542Z,52.31
2019-06-26T20:09:30.221Z,52.01
2019-06-26T20:11:33.170Z,51.98
2019-06-26T20:13:35.645Z,51.75
2019-06-26T20:15:38.343Z,51.79
2019-06-26T20:17:40.710Z,51.28
2019-06-26T20:19:43.105Z,51.33
2019-06-26T20:21:45.778Z,50.96
2019-06-26T20:23:48.273Z,50.91
2019-06-26T20:25:50.764Z,50.91
2019-06-26T20:27:56.913Z,50.76
2019-06-26T20:29:57.363Z,50.59
2019-06-26T20:32:00.101Z,50.30
2019-06-26T20:34:02.719Z,50.32
2019-06-26T20:36:05.857Z,50.00
2019-06-26T20:38:08.181Z,50.08
2019-06-26T20:40:10.571Z,49.92
2019-06-26T20:42:12.984Z,49.75
2019-06-26T20:44:15.571Z,49.57
2019-06-26T20:46:17.992Z,49.53
2019-06-26T20:48:20.671Z,49.37
2019-06-26T20:50:23.098Z,49.27
2019-06-26T20:52:25.771Z,49.20
2019-06-26T20:54:28.446Z,49.17
2019-06-26T20:56:30.927Z,48.85
2019-06-26T20:58:33.980Z,48.92
2019-06-26T21:00:36.657Z,48.91
2019-06-26T21:02:39.034Z,48.97
2019-06-26T21:04:41.479Z,48.88
2019-06-26T21:06:43.904Z,48.64
2019-06-26T21:08:46.262Z,48.85
2019-06-26T21:10:48.602Z,48.95
2019-06-26T21:12:51.168Z,48.95
2019-06-26T21:14:54.007Z,48.95
2019-06-26T21:16:56.363Z,49.01
2019-06-26T21:18:58.747Z,49.04
2019-06-26T21:21:01.219Z,49.05
2019-06-26T21:23:03.704Z,49.11
2019-06-26T21:25:17.825Z,49.17
2019-06-26T21:27:10.452Z,49.20
2019-06-26T21:29:12.859Z,49.26
2019-06-26T21:31:15.158Z,49.33
2019-06-26T21:33:17.651Z,49.38
2019-06-26T21:35:19.986Z,49.42
2019-06-26T21:37:22.389Z,49.49
2019-06-26T21:39:24.715Z,49.55
2019-06-26T21:41:27.337Z,49.61
2019-06-26T21:43:29.684Z,49.65
2019-06-26T21:45:32.295Z,49.74
2019-06-26T21:47:34.678Z,49.76
2019-06-26T21:49:37.287Z,49.84
2019-06-26T21:51:39.864Z,49.89
2019-06-26T21:53:42.519Z,49.93
2019-06-26T21:55:44.866Z,49.98
2019-06-26T21:57:47.248Z,50.03
2019-06-26T21:59:49.664Z,50.08
2019-06-26T22:01:54.870Z,50.10
2019-06-26T22:04:00.552Z,50.11
2019-06-26T22:06:05.003Z,50.16
2019-06-26T22:08:07.367Z,50.19
2019-06-26T22:10:10.418Z,50.20
2019-06-26T22:12:19.637Z,50.20
2019-06-26T22:14:22.422Z,50.26
2019-06-26T22:16:35.034Z,50.27
2019-06-26T22:18:38.419Z,50.30
2019-06-26T22:20:41.012Z,50.32
2019-06-26T22:22:43.338Z,50.34
2019-06-26T22:24:46.047Z,50.36
2019-06-26T22:26:48.346Z,50.36
2019-06-26T22:28:54.082Z,50.42
2019-06-26T22:30:56.860Z,50.41
2019-06-26T22:32:59.184Z,50.43
2019-06-26T22:35:01.644Z,50.42
2019-06-26T22:37:04.212Z,50.45
2019-06-26T22:39:06.954Z,50.43
2019-06-26T22:41:09.687Z,50.39
2019-06-26T22:43:12.579Z,50.43
2019-06-26T22:45:15.366Z,50.41
2019-06-26T22:47:17.836Z,50.43
2019-06-26T22:49:20.364Z,50.45
2019-06-26T22:51:22.707Z,50.44
2019-06-26T22:53:25.113Z,50.42
2019-06-26T22:55:27.671Z,50.43
2019-06-26T22:57:30.383Z,50.43
2019-06-26T22:59:32.868Z,50.42
2019-06-26T23:01:35.211Z,50.41
2019-06-26T23:03:37.828Z,50.38
2019-06-26T23:05:40.228Z,50.36
2019-06-26T23:07:42.942Z,50.39
2019-06-26T23:09:45.417Z,50.39
2019-06-26T23:11:48.120Z,50.39
2019-06-26T23:13:50.765Z,50.39
2019-06-26T23:15:53.260Z,50.39
2019-06-26T23:17:56.477Z,50.39
2019-06-26T23:19:58.960Z,50.38
2019-06-26T23:22:01.444Z,50.41
2019-06-26T23:24:03.914Z,50.39
2019-06-26T23:26:06.276Z,50.42
2019-06-26T23:28:08.756Z,50.43
2019-06-26T23:30:11.120Z,50.43
2019-06-26T23:32:13.457Z,50.44
2019-06-26T23:34:15.992Z,50.47
2019-06-26T23:36:18.313Z,50.45
2019-06-26T23:38:20.694Z,50.44
2019-06-26T23:40:23.333Z,50.44
2019-06-26T23:42:25.724Z,50.45
2019-06-26T23:44:28.059Z,50.45
2019-06-26T23:46:30.760Z,50.47
2019-06-26T23:48:33.501Z,50.46
2019-06-26T23:50:35.889Z,50.46
2019-06-26T23:52:38.481Z,50.45
2019-06-26T23:54:40.839Z,50.46
2019-06-26T23:56:43.174Z,50.47
2019-06-26T23:58:45.894Z,50.47
